createdAt,value
2022-11-29T00:02:11.556Z,32.33
2022-11-29T00:04:45.757Z,31.00
2022-11-29T00:07:13.647Z,32.75
2022-11-29T00:09:41.089Z,30.40
2022-11-29T00:12:12.326Z,26.73
2022-11-29T00:14:43.710Z,31.35
2022-11-29T00:17:14.186Z,51.10
2022-11-29T00:19:41.635Z,33.05
2022-11-29T00:22:09.844Z,30.73
2022-11-29T00:24:38.939Z,28.20
2022-11-29T00:27:07.827Z,28.08
2022-11-29T00:29:38.372Z,29.05
2022-11-29T00:32:11.013Z,27.48
2022-11-29T00:34:40.308Z,31.20
2022-11-29T00:37:10.649Z,28.58
2022-11-29T00:39:38.814Z,36.08
2022-11-29T00:42:05.954Z,34.92
2022-11-29T00:44:39.961Z,37.50
2022-11-29T00:47:13.606Z,46.08
2022-11-29T00:49:40.894Z,31.45
2022-11-29T00:52:10.343Z,33.92
2022-11-29T00:54:38.765Z,28.67
2022-11-29T00:57:06.693Z,25.23
2022-11-29T00:59:36.950Z,25.45
2022-11-29T01:02:05.704Z,28.85
2022-11-29T01:04:35.111Z,28.67
2022-11-29T01:07:05.821Z,28.55
2022-11-29T01:09:33.956Z,27.85
2022-11-29T01:12:05.453Z,24.80
2022-11-29T01:14:37.402Z,27.65
2022-11-29T01:17:07.332Z,31.77
2022-11-29T01:19:35.708Z,28.23
2022-11-29T01:22:04.339Z,26.15
2022-11-29T01:24:35.312Z,27.40
2022-11-29T01:27:06.762Z,25.20
2022-11-29T01:29:39.416Z,25.80
2022-11-29T01:32:08.607Z,26.45
2022-11-29T01:34:39.429Z,29.25
2022-11-29T01:37:09.330Z,28.10
2022-11-29T01:39:37.094Z,26.40
2022-11-29T01:42:06.649Z,33.47
2022-11-29T01:44:49.985Z,29.23
2022-11-29T01:47:22.151Z,32.03
2022-11-29T01:49:52.134Z,36.00
2022-11-29T01:52:30.667Z,32.80
2022-11-29T01:55:10.637Z,30.58
2022-11-29T01:57:43.881Z,31.73
2022-11-29T02:00:20.275Z,32.05
2022-11-29T02:03:10.484Z,30.17
2022-11-29T02:05:50.400Z,31.98
2022-11-29T02:08:34.292Z,30.55
2022-11-29T02:11:20.532Z,30.05
2022-11-29T02:14:08.681Z,30.90
2022-11-29T02:17:17.536Z,29.95
2022-11-29T02:20:55.619Z,28.80
2022-11-29T02:24:07.577Z,29.75
2022-11-29T02:27:12.251Z,28.73
2022-11-29T02:30:05.071Z,27.92
2022-11-29T02:33:16.713Z,28.10
2022-11-29T02:35:45.751Z,26.08
2022-11-29T02:38:19.319Z,28.30
2022-11-29T02:41:17.496Z,27.85
2022-11-29T02:44:22.047Z,28.27
2022-11-29T02:47:06.002Z,26.88
2022-11-29T02:49:55.469Z,26.98
2022-11-29T02:52:49.649Z,30.80
2022-11-29T02:55:42.412Z,25.83
2022-11-29T02:58:40.158Z,28.08
2022-11-29T03:01:45.351Z,28.45
2022-11-29T03:04:36.458Z,28.70
2022-11-29T03:07:30.386Z,29.85
2022-11-29T03:10:37.494Z,48.67
2022-11-29T03:13:35.609Z,31.85
2022-11-29T03:16:28.733Z,31.23
2022-11-29T03:19:30.118Z,29.05
2022-11-29T03:22:38.703Z,29.17
2022-11-29T03:25:38.314Z,28.45
2022-11-29T03:28:28.176Z,31.85
2022-11-29T03:31:09.799Z,33.45
2022-11-29T03:34:20.495Z,30.50
2022-11-29T03:37:20.444Z,33.50
2022-11-29T03:40:17.097Z,32.03
2022-11-29T03:43:27.538Z,29.92
2022-11-29T03:46:03.903Z,35.38
2022-11-29T03:48:57.257Z,33.40
2022-11-29T03:52:01.403Z,31.13
2022-11-29T03:55:11.911Z,32.70
2022-11-29T03:58:23.037Z,32.88
2022-11-29T04:00:53.034Z,31.05
2022-11-29T04:04:04.631Z,32.83
2022-11-29T04:07:09.160Z,33.50
2022-11-29T04:10:06.111Z,32.72
2022-11-29T04:13:14.677Z,32.72
2022-11-29T04:16:23.407Z,30.38
2022-11-29T04:19:13.658Z,33.80
2022-11-29T04:22:10.514Z,32.60
2022-11-29T04:24:56.278Z,35.00
2022-11-29T04:27:59.062Z,34.00
2022-11-29T04:30:39.859Z,31.83
2022-11-29T04:33:39.887Z,34.10
2022-11-29T04:37:05.231Z,34.83
2022-11-29T04:39:55.766Z,32.47
2022-11-29T04:42:37.702Z,33.47
2022-11-29T04:45:39.120Z,33.25
2022-11-29T04:48:43.325Z,31.15
2022-11-29T04:51:48.459Z,33.75
2022-11-29T04:54:48.115Z,30.38
2022-11-29T04:57:46.109Z,30.42
2022-11-29T05:00:22.162Z,31.08
2022-11-29T05:03:46.889Z,29.83
2022-11-29T05:06:44.362Z,35.40
2022-11-29T05:10:02.214Z,32.38
2022-11-29T05:13:07.524Z,26.10
2022-11-29T05:16:00.453Z,27.38
2022-11-29T05:19:08.742Z,27.70
2022-11-29T05:22:18.153Z,29.17
2022-11-29T05:25:39.332Z,29.38
2022-11-29T05:28:17.423Z,23.23
2022-11-29T05:31:37.189Z,23.92
2022-11-29T05:34:43.085Z,26.95
2022-11-29T05:37:43.438Z,25.02
2022-11-29T05:40:22.775Z,25.23
2022-11-29T05:43:33.355Z,26.38
2022-11-29T05:46:43.911Z,25.92
2022-11-29T05:49:59.890Z,23.88
2022-11-29T05:53:14.240Z,22.88
2022-11-29T05:56:05.306Z,22.80
2022-11-29T05:58:55.453Z,26.48
2022-11-29T06:01:34.533Z,23.30
2022-11-29T06:04:43.456Z,21.77
2022-11-29T06:07:24.707Z,23.40
2022-11-29T06:10:06.307Z,23.75
2022-11-29T06:12:36.303Z,22.15
2022-11-29T06:15:49.685Z,22.55
2022-11-29T06:19:00.439Z,26.02
2022-11-29T06:22:01.172Z,32.47
2022-11-29T06:25:04.747Z,25.23
2022-11-29T06:27:51.538Z,27.63
2022-11-29T06:30:33.636Z,23.98
2022-11-29T06:33:29.873Z,29.48
2022-11-29T06:36:16.393Z,26.55
2022-11-29T06:38:46.021Z,23.00
2022-11-29T06:41:21.310Z,22.77
2022-11-29T06:43:51.542Z,22.70
2022-11-29T06:47:00.626Z,22.98
2022-11-29T06:50:09.112Z,22.50
2022-11-29T06:53:23.743Z,30.02
2022-11-29T06:56:29.920Z,29.47
2022-11-29T06:59:28.813Z,21.38
2022-11-29T07:02:34.886Z,20.02
2022-11-29T07:05:10.755Z,22.33
2022-11-29T07:07:39.743Z,23.25
2022-11-29T07:10:25.799Z,25.25
2022-11-29T07:12:55.617Z,28.00
2022-11-29T07:15:26.645Z,20.58
2022-11-29T07:18:12.208Z,21.05
2022-11-29T07:20:59.906Z,22.30
2022-11-29T07:23:43.579Z,26.15
2022-11-29T07:26:59.587Z,23.15
2022-11-29T07:30:01.696Z,26.73
2022-11-29T07:33:00.459Z,27.67
2022-11-29T07:36:02.564Z,22.52
2022-11-29T07:39:08.063Z,23.27
2022-11-29T07:41:56.568Z,24.50
2022-11-29T07:44:44.883Z,21.70
2022-11-29T07:47:15.921Z,22.25
2022-11-29T07:49:46.617Z,23.83
2022-11-29T07:52:17.375Z,24.38
2022-11-29T07:54:45.398Z,27.35
2022-11-29T07:57:15.339Z,20.27
2022-11-29T07:59:44.846Z,22.13
2022-11-29T08:02:17.723Z,21.35
2022-11-29T08:04:45.397Z,24.35
2022-11-29T08:07:14.135Z,21.45
2022-11-29T08:09:47.776Z,27.17
2022-11-29T08:12:17.694Z,24.08
2022-11-29T08:14:49.662Z,28.42
2022-11-29T08:17:22.997Z,23.63
2022-11-29T08:19:53.588Z,25.48
2022-11-29T08:22:22.229Z,23.05
2022-11-29T08:24:51.991Z,23.02
2022-11-29T08:27:22.573Z,30.35
2022-11-29T08:29:52.647Z,41.17
2022-11-29T08:32:20.127Z,28.20
2022-11-29T08:34:49.029Z,26.85
2022-11-29T08:37:19.887Z,24.15
2022-11-29T08:39:49.285Z,23.10
2022-11-29T08:42:18.166Z,24.67
2022-11-29T08:44:50.443Z,23.85
2022-11-29T08:47:36.549Z,21.30
2022-11-29T08:50:21.723Z,19.27
2022-11-29T08:53:09.317Z,23.13
2022-11-29T08:55:50.950Z,16.60
2022-11-29T08:58:21.918Z,19.23
2022-11-29T09:00:53.799Z,20.30
2022-11-29T09:03:42.723Z,23.10
2022-11-29T09:06:13.196Z,26.13
2022-11-29T09:08:45.298Z,19.48
2022-11-29T09:14:11.527Z,15.52
2022-11-29T09:16:41.597Z,18.50
2022-11-29T09:19:15.950Z,18.10
2022-11-29T09:21:46.513Z,16.58
2022-11-29T09:24:16.210Z,21.52
2022-11-29T09:26:51.979Z,15.32
2022-11-29T09:29:23.766Z,15.63
2022-11-29T09:31:54.083Z,16.40
2022-11-29T09:34:22.402Z,16.83
2022-11-29T09:36:51.202Z,16.45
2022-11-29T09:39:22.241Z,21.23
2022-11-29T09:42:12.133Z,15.05
2022-11-29T09:45:01.391Z,16.95
2022-11-29T09:47:48.669Z,24.55
2022-11-29T09:50:44.501Z,18.90
2022-11-29T09:53:49.213Z,15.88
2022-11-29T09:56:31.707Z,13.15
2022-11-29T09:59:15.820Z,17.85
2022-11-29T10:02:17.012Z,15.68
2022-11-29T10:05:00.677Z,16.25
2022-11-29T10:08:01.773Z,13.20
2022-11-29T10:10:45.806Z,16.20
2022-11-29T10:13:34.450Z,16.80
2022-11-29T10:16:20.594Z,19.20
2022-11-29T10:19:29.484Z,13.93
2022-11-29T10:22:21.823Z,15.82
2022-11-29T10:24:54.975Z,12.90
2022-11-29T10:27:24.633Z,18.52
2022-11-29T10:29:54.647Z,11.07
2022-11-29T10:32:33.850Z,12.52
2022-11-29T10:35:02.654Z,12.57
2022-11-29T10:37:35.656Z,12.77
2022-11-29T10:40:10.217Z,14.57
2022-11-29T10:42:57.957Z,13.90
2022-11-29T10:45:42.087Z,11.55
2022-11-29T10:48:14.449Z,12.98
2022-11-29T10:50:56.776Z,13.60
2022-11-29T10:53:40.328Z,10.90
2022-11-29T10:56:24.391Z,12.80
2022-11-29T10:59:09.540Z,13.10
2022-11-29T11:01:41.726Z,16.27
2022-11-29T11:04:25.637Z,18.90
2022-11-29T11:06:59.895Z,27.40
2022-11-29T11:09:50.587Z,19.77
2022-11-29T11:12:27.782Z,20.98
2022-11-29T11:15:30.403Z,18.75
2022-11-29T11:18:01.501Z,17.52
2022-11-29T11:20:38.254Z,21.20
2022-11-29T11:23:21.486Z,18.67
2022-11-29T11:26:03.977Z,21.70
2022-11-29T11:28:56.007Z,18.88
2022-11-29T11:31:35.206Z,20.73
2022-11-29T11:34:39.534Z,20.48
2022-11-29T11:37:38.030Z,20.08
2022-11-29T11:40:43.188Z,19.40
2022-11-29T11:43:21.807Z,18.67
2022-11-29T11:45:54.596Z,21.38
2022-11-29T11:48:26.573Z,22.35
2022-11-29T11:51:01.720Z,19.58
2022-11-29T11:53:41.054Z,18.20
2022-11-29T11:56:14.879Z,19.67
2022-11-29T11:59:00.181Z,14.85
2022-11-29T12:01:40.570Z,18.83
2022-11-29T12:04:49.800Z,17.77
2022-11-29T12:08:05.746Z,17.23
2022-11-29T12:10:28.607Z,18.17
2022-11-29T12:12:59.491Z,18.95
2022-11-29T12:15:46.857Z,20.88
2022-11-29T12:18:53.107Z,17.63
2022-11-29T12:21:37.838Z,16.80
2022-11-29T12:24:45.494Z,26.08
2022-11-29T12:27:20.129Z,18.00
2022-11-29T12:29:48.616Z,19.37
2022-11-29T12:32:35.929Z,18.90
2022-11-29T12:35:09.264Z,18.23
2022-11-29T12:38:10.634Z,20.02
2022-11-29T12:40:56.805Z,20.02
2022-11-29T12:43:52.158Z,17.35
2022-11-29T12:46:28.364Z,17.17
2022-11-29T12:49:20.351Z,23.52
2022-11-29T12:52:17.521Z,22.70
2022-11-29T12:55:17.478Z,18.52
2022-11-29T12:58:15.581Z,17.98
2022-11-29T13:01:30.268Z,26.95
2022-11-29T13:04:25.248Z,25.20
2022-11-29T13:07:02.418Z,16.33
2022-11-29T13:09:51.605Z,14.73
2022-11-29T13:12:51.413Z,16.95
2022-11-29T13:15:39.129Z,17.58
2022-11-29T13:18:34.086Z,15.18
2022-11-29T13:21:20.518Z,16.83
2022-11-29T13:24:32.616Z,16.80
2022-11-29T13:27:07.599Z,21.00
2022-11-29T13:29:38.304Z,68.63
2022-11-29T13:32:45.121Z,24.95
2022-11-29T13:36:11.761Z,18.75
2022-11-29T13:39:12.241Z,14.73
2022-11-29T13:41:59.866Z,14.05
2022-11-29T13:45:04.671Z,12.05
2022-11-29T13:47:32.528Z,12.93
2022-11-29T13:50:04.020Z,13.50
2022-11-29T13:52:53.196Z,15.38
2022-11-29T13:55:29.695Z,17.20
2022-11-29T13:58:31.168Z,16.08
2022-11-29T14:01:01.330Z,12.82
2022-11-29T14:03:45.490Z,13.20
2022-11-29T14:06:24.343Z,13.65
2022-11-29T14:09:17.700Z,14.68
2022-11-29T14:11:52.749Z,16.17
2022-11-29T14:14:41.114Z,15.23
2022-11-29T14:17:49.763Z,15.02
2022-11-29T14:20:34.881Z,17.20
2022-11-29T14:23:31.573Z,18.55
2022-11-29T14:26:00.873Z,17.40
2022-11-29T14:28:41.726Z,19.33
2022-11-29T14:31:34.341Z,16.33
2022-11-29T14:34:14.117Z,19.20
2022-11-29T14:37:00.935Z,19.98
2022-11-29T14:39:41.929Z,16.05
2022-11-29T14:42:22.591Z,20.88
2022-11-29T14:45:03.516Z,17.02
2022-11-29T14:47:43.042Z,14.35
2022-11-29T14:50:50.649Z,22.95
2022-11-29T14:53:33.593Z,17.17
2022-11-29T14:56:34.482Z,29.77
2022-11-29T14:59:38.417Z,19.00
2022-11-29T15:02:12.820Z,19.48
2022-11-29T15:04:45.398Z,20.30
2022-11-29T15:07:27.041Z,23.25
2022-11-29T15:10:00.240Z,20.65
2022-11-29T15:12:37.462Z,23.20
2022-11-29T15:15:25.957Z,27.13
2022-11-29T15:18:24.736Z,21.00
2022-11-29T15:21:26.998Z,21.13
2022-11-29T15:24:13.070Z,20.83
2022-11-29T15:27:05.109Z,20.60
2022-11-29T15:29:34.987Z,21.33
2022-11-29T15:32:10.454Z,31.98
2022-11-29T15:34:46.038Z,27.88
2022-11-29T15:37:42.087Z,24.23
2022-11-29T15:40:19.491Z,30.55
2022-11-29T15:43:22.151Z,24.95
2022-11-29T15:45:52.680Z,21.70
2022-11-29T15:48:28.019Z,22.85
2022-11-29T15:51:25.171Z,21.00
2022-11-29T15:54:25.381Z,21.10
2022-11-29T15:57:30.642Z,21.60
2022-11-29T16:00:10.365Z,24.10
2022-11-29T16:02:49.961Z,26.90
2022-11-29T16:05:46.000Z,25.98
2022-11-29T16:08:36.905Z,23.42
2022-11-29T16:11:07.742Z,23.80
2022-11-29T16:13:41.860Z,22.20
2022-11-29T16:16:12.128Z,19.48
2022-11-29T16:18:43.414Z,27.83
2022-11-29T16:21:31.421Z,21.45
2022-11-29T16:23:59.109Z,20.35
2022-11-29T16:26:49.285Z,18.92
2022-11-29T16:29:47.794Z,21.23
2022-11-29T16:32:35.311Z,15.98
2022-11-29T16:35:27.297Z,30.92
2022-11-29T16:37:54.889Z,23.38
2022-11-29T16:40:33.893Z,15.75
2022-11-29T16:43:22.646Z,21.63
2022-11-29T16:46:30.814Z,15.25
2022-11-29T16:49:03.007Z,15.88
2022-11-29T16:51:57.686Z,16.20
2022-11-29T16:54:36.987Z,17.70
2022-11-29T16:57:06.650Z,16.88
2022-11-29T16:59:35.465Z,16.55
2022-11-29T17:02:09.155Z,15.93
2022-11-29T17:04:39.424Z,15.98
2022-11-29T17:07:15.059Z,20.65
2022-11-29T17:09:45.870Z,16.67
2022-11-29T17:12:15.574Z,15.00
2022-11-29T17:14:46.504Z,17.38
2022-11-29T17:17:20.558Z,15.48
2022-11-29T17:19:49.008Z,16.50
2022-11-29T17:22:20.086Z,15.25
2022-11-29T17:24:54.456Z,16.20
2022-11-29T17:27:25.329Z,14.60
2022-11-29T17:29:54.820Z,21.30
2022-11-29T17:32:26.902Z,17.23
2022-11-29T17:34:55.898Z,16.35
2022-11-29T17:37:23.633Z,15.90
2022-11-29T17:39:52.026Z,16.80
2022-11-29T17:42:23.122Z,16.45
2022-11-29T17:44:53.246Z,21.05
2022-11-29T17:47:25.164Z,20.35
2022-11-29T17:49:52.742Z,19.02
2022-11-29T17:52:22.259Z,14.70
2022-11-29T17:54:50.860Z,15.30
2022-11-29T17:57:20.018Z,13.73
2022-11-29T17:59:48.590Z,17.60
2022-11-29T18:02:20.575Z,17.35
2022-11-29T18:04:47.772Z,15.18
2022-11-29T18:07:19.619Z,14.90
2022-11-29T18:12:23.585Z,15.60
2022-11-29T18:14:52.992Z,16.10
2022-11-29T18:17:23.145Z,15.80
2022-11-29T18:19:52.937Z,15.77
2022-11-29T18:22:21.872Z,19.15
2022-11-29T18:24:49.632Z,15.65
2022-11-29T18:27:19.839Z,14.00
2022-11-29T18:29:48.471Z,14.25
2022-11-29T18:32:15.963Z,16.38
2022-11-29T18:34:49.857Z,13.65
2022-11-29T18:37:46.168Z,24.17
2022-11-29T18:40:15.371Z,18.40
2022-11-29T18:42:43.766Z,18.67
2022-11-29T18:45:12.022Z,18.30
2022-11-29T18:47:42.193Z,18.35
2022-11-29T18:50:15.008Z,17.10
2022-11-29T18:52:58.884Z,19.13
2022-11-29T18:55:27.924Z,18.48
2022-11-29T18:57:58.132Z,15.90
2022-11-29T19:00:28.535Z,16.52
2022-11-29T19:02:58.177Z,14.95
2022-11-29T19:05:29.183Z,18.73
2022-11-29T19:07:56.932Z,18.88
2022-11-29T19:10:26.268Z,14.82
2022-11-29T19:12:59.392Z,15.15
2022-11-29T19:15:27.517Z,20.90
2022-11-29T19:17:59.801Z,19.20
2022-11-29T19:20:34.105Z,25.33
2022-11-29T19:23:02.257Z,20.47
2022-11-29T19:25:34.889Z,17.48
2022-11-29T19:28:11.117Z,17.67
2022-11-29T19:30:45.272Z,17.25
2022-11-29T19:33:18.297Z,18.17
2022-11-29T19:35:50.171Z,18.33
2022-11-29T19:38:20.552Z,16.77
2022-11-29T19:40:50.029Z,16.38
2022-11-29T19:43:21.475Z,37.15
2022-11-29T19:45:54.043Z,41.13
2022-11-29T19:48:23.358Z,28.17
2022-11-29T19:50:52.584Z,21.23
2022-11-29T19:53:24.467Z,15.57
2022-11-29T19:55:57.821Z,19.13
2022-11-29T19:58:28.045Z,15.32
2022-11-29T20:01:03.382Z,16.08
2022-11-29T20:03:33.281Z,16.05
2022-11-29T20:06:03.759Z,16.52
2022-11-29T20:08:34.923Z,17.20
2022-11-29T20:11:11.254Z,18.63
2022-11-29T20:13:42.464Z,18.58
2022-11-29T20:16:12.877Z,17.10
2022-11-29T20:18:50.115Z,18.00
2022-11-29T20:21:23.490Z,15.82
2022-11-29T20:24:05.293Z,17.23
2022-11-29T20:26:40.766Z,16.30
2022-11-29T20:29:11.297Z,21.48
2022-11-29T20:31:49.642Z,17.70
2022-11-29T20:34:21.281Z,13.13
2022-11-29T20:37:10.641Z,15.77
2022-11-29T20:39:55.266Z,17.98
2022-11-29T20:42:39.526Z,18.30
2022-11-29T20:45:14.877Z,16.33
2022-11-29T20:48:13.531Z,16.60
2022-11-29T20:50:44.535Z,39.17
2022-11-29T20:53:35.002Z,17.85
2022-11-29T20:56:03.739Z,15.60
2022-11-29T20:58:33.969Z,14.75
2022-11-29T21:01:05.219Z,15.30
2022-11-29T21:03:34.688Z,14.18
2022-11-29T21:06:06.679Z,15.95
2022-11-29T21:08:37.978Z,15.30
2022-11-29T21:11:10.569Z,14.60
2022-11-29T21:13:42.299Z,14.65
2022-11-29T21:16:12.347Z,17.77
2022-11-29T21:18:43.549Z,13.90
2022-11-29T21:21:50.353Z,13.60
2022-11-29T21:24:50.420Z,14.90
2022-11-29T21:27:29.894Z,15.57
2022-11-29T21:30:01.665Z,17.75
2022-11-29T21:32:32.071Z,15.88
2022-11-29T21:35:00.192Z,17.45
2022-11-29T21:37:33.340Z,15.00
2022-11-29T21:40:03.855Z,17.67
2022-11-29T21:42:36.419Z,17.48
2022-11-29T21:45:15.809Z,16.75
2022-11-29T21:47:51.835Z,19.33
2022-11-29T21:50:25.239Z,18.38
2022-11-29T21:52:58.566Z,12.98
2022-11-29T21:55:31.967Z,13.57
2022-11-29T21:58:05.335Z,15.57
2022-11-29T22:00:37.260Z,17.08
2022-11-29T22:03:07.454Z,18.50
2022-11-29T22:05:34.867Z,15.75
2022-11-29T22:08:11.443Z,21.23
2022-11-29T22:10:38.536Z,17.30
2022-11-29T22:13:08.609Z,13.80
2022-11-29T22:15:38.245Z,15.02
2022-11-29T22:18:08.731Z,14.10
2022-11-29T22:20:36.003Z,13.98
2022-11-29T22:23:05.205Z,13.10
2022-11-29T22:25:35.006Z,15.55
2022-11-29T22:28:03.903Z,11.38
2022-11-29T22:30:34.498Z,11.90
2022-11-29T22:33:13.140Z,11.18
2022-11-29T22:35:46.462Z,11.55
2022-11-29T22:38:16.680Z,12.43
2022-11-29T22:40:43.806Z,11.95
2022-11-29T22:43:11.879Z,12.15
2022-11-29T22:45:43.758Z,12.55
2022-11-29T22:48:13.697Z,11.75
2022-11-29T22:50:43.280Z,11.38
2022-11-29T22:53:13.659Z,10.93
2022-11-29T22:55:42.928Z,11.50
2022-11-29T22:58:11.321Z,9.75
2022-11-29T23:00:46.679Z,10.77
2022-11-29T23:03:16.468Z,11.35
2022-11-29T23:05:46.126Z,7.93
2022-11-29T23:08:17.850Z,8.57
2022-11-29T23:10:59.504Z,8.10
2022-11-29T23:13:27.182Z,7.93
2022-11-29T23:15:57.635Z,8.63
2022-11-29T23:18:27.509Z,9.85
2022-11-29T23:21:11.990Z,11.13
2022-11-29T23:23:40.335Z,10.70
2022-11-29T23:26:21.160Z,7.47
2022-11-29T23:28:51.842Z,8.68
2022-11-29T23:31:26.215Z,11.63
2022-11-29T23:33:57.687Z,9.23
2022-11-29T23:36:29.586Z,8.80
2022-11-29T23:38:59.521Z,19.00
2022-11-29T23:41:30.105Z,17.85
2022-11-29T23:44:02.308Z,8.48
2022-11-29T23:46:30.976Z,11.43
2022-11-29T23:48:59.954Z,14.43
2022-11-29T23:51:35.220Z,12.48
2022-11-29T23:54:03.151Z,12.82
2022-11-29T23:56:39.389Z,10.02
2022-11-29T23:59:09.526Z,6.97
